Time;durP1;ratioP1;P1;durP2;ratioP2;P2;SDS_P1;SDS_P2;PMS_P1;PMS_P2;Temp;Humidity;BMP_temperature;BMP_pressure;BME280_temperature;BME280_humidity;BME280_pressure;Samples;Min_cycle;Max_cycle;Signal;HPM_P1;HPM_P2
2023/03/10 00:01:42;;;;;;;;;;;;;;;26.95;38.08;92465.13;4920949;29;7253;-61
2023/03/10 00:04:49;;;;;;;;;;;;;;;26.96;37.98;92444.53;4926510;29;7046;-61
2023/03/10 00:07:53;;;;;;;;;;;;;;;26.96;37.98;92450.06;4880308;29;9256;-61
2023/03/10 00:10:33;;;;;;;;;;;;;;;26.94;37.85;92436.09;4879437;29;7054;-61
2023/03/10 00:13:01;;;;;;;;;;;;;;;26.94;38.23;92452.66;4880071;29;8987;-61
2023/03/10 00:15:27;;;;;;;;;;;;;;;26.95;38.20;92448.56;4879543;29;9362;-61
2023/03/10 00:18:09;;;;;;;;;;;;;;;26.94;37.74;92436.09;4870109;29;7255;-61
2023/03/10 00:21:04;;;;;;;;;;;;;;;26.94;37.68;92440.88;4879648;29;9045;-61
2023/03/10 00:23:31;;;;;;;;;;;;;;;26.92;38.16;92433.88;4824294;29;7230;-61
2023/03/10 00:26:14;;;;;;;;;;;;;;;26.91;38.03;92417.91;4817341;29;7267;-61
2023/03/10 00:28:50;;;;;;;;;;;;;;;26.92;38.24;92426.91;4824965;29;7040;-61
2023/03/10 00:31:26;;;;;;;;;;;;;;;26.92;38.34;92422.13;4824649;29;7257;-61
2023/03/10 00:34:17;;;;;;;;;;;;;;;26.92;37.99;92415.88;4825191;29;7234;-62
2023/03/10 00:36:45;;;;;;;;;;;;;;;26.90;38.42;92410.94;4824573;29;7057;-61
2023/03/10 00:39:25;;;;;;;;;;;;;;;26.90;38.03;92439.25;4815982;29;9556;-61
2023/03/10 00:41:52;;;;;;;;;;;;;;;26.92;38.23;92460.03;4891840;29;9062;-61
2023/03/10 00:44:27;;;;;;;;;;;;;;;26.92;38.45;92464.22;4900004;29;7118;-61
2023/03/10 00:47:11;;;;;;;;;;;;;;;26.92;37.93;92476.56;4897557;29;7280;-61
2023/03/10 00:50:15;;;;;;;;;;;;;;;26.89;38.05;92494.97;4883574;29;7464;-61
2023/03/10 00:53:05;;;;;;;;;;;;;;;26.91;38.45;92492.38;4904216;29;7052;-61
2023/03/10 00:55:39;;;;;;;;;;;;;;;26.90;38.32;92480.63;4888326;29;9064;-61
2023/03/10 00:58:23;;;;;;;;;;;;;;;26.90;37.92;92480.63;4910840;29;9106;-61
2023/03/10 01:01:02;;;;;;;;;;;;;;;26.89;38.02;92483.94;4962647;28;7089;-61
2023/03/10 01:03:43;;;;;;;;;;;;;;;26.89;38.32;92481.94;4974810;28;8819;-61
2023/03/10 01:06:09;;;;;;;;;;;;;;;26.88;37.66;92474.94;4979017;28;7246;-61
2023/03/10 01:08:51;;;;;;;;;;;;;;;26.87;37.97;92475.50;4976308;28;8985;-61
2023/03/10 01:11:26;;;;;;;;;;;;;;;26.86;38.13;92479.59;4972032;28;7136;-61
2023/03/10 01:13:59;;;;;;;;;;;;;;;26.86;38.54;92490.63;4968073;28;7068;-61
2023/03/10 01:16:28;;;;;;;;;;;;;;;26.87;38.06;92492.06;4970350;28;7857;-61
2023/03/10 01:18:58;;;;;;;;;;;;;;;26.86;38.19;92493.38;4969991;28;8945;-61
2023/03/10 01:21:39;;;;;;;;;;;;;;;26.85;37.81;92484.34;4974279;28;8993;-61
2023/03/10 01:24:24;;;;;;;;;;;;;;;26.85;38.20;92483.63;4971192;28;9018;-61
2023/03/10 01:26:59;;;;;;;;;;;;;;;26.84;38.02;92487.66;4971134;28;8944;-61
2023/03/10 01:29:37;;;;;;;;;;;;;;;26.86;38.27;92485.09;4971943;28;8968;-61
2023/03/10 01:32:15;;;;;;;;;;;;;;;26.83;38.29;92470.41;4972697;28;7058;-61
2023/03/10 01:34:55;;;;;;;;;;;;;;;26.84;37.79;92460.81;4975202;28;9541;-61
2023/03/10 01:37:23;;;;;;;;;;;;;;;26.86;38.07;92471.31;4973642;28;9238;-61
2023/03/10 01:39:54;;;;;;;;;;;;;;;26.84;38.49;92460.06;4971746;28;7285;-61
2023/03/10 01:42:42;;;;;;;;;;;;;;;26.83;38.03;92451.09;4987748;28;7587;-61
2023/03/10 01:45:16;;;;;;;;;;;;;;;26.83;38.10;92453.84;4969149;28;9232;-61
2023/03/10 01:47:45;;;;;;;;;;;;;;;26.85;38.21;92456.03;4975427;28;7040;-61
2023/03/10 01:50:22;;;;;;;;;;;;;;;26.83;37.69;92448.34;4973133;28;7043;-61
2023/03/10 01:52:57;;;;;;;;;;;;;;;26.83;38.11;92448.34;4975259;28;8890;-61
2023/03/10 01:55:37;;;;;;;;;;;;;;;26.82;37.96;92448.88;4972181;28;9032;-62
2023/03/10 01:58:18;;;;;;;;;;;;;;;26.80;37.66;92434.94;4981805;28;7263;-61
2023/03/10 02:00:52;;;;;;;;;;;;;;;26.83;37.65;92453.13;4975066;28;8716;-62
2023/03/10 02:03:28;;;;;;;;;;;;;;;26.81;37.73;92452.94;4989651;28;8967;-61
2023/03/10 02:06:10;;;;;;;;;;;;;;;26.80;38.20;92452.22;4965762;28;7160;-62
2023/03/10 02:08:49;;;;;;;;;;;;;;;26.80;38.28;92454.22;4989396;28;7245;-61
2023/03/10 02:11:24;;;;;;;;;;;;;;;26.79;38.17;92456.28;4985943;28;7284;-61
2023/03/10 02:13:52;;;;;;;;;;;;;;;26.82;38.47;92446.84;4988709;28;7102;-61
2023/03/10 02:16:23;;;;;;;;;;;;;;;26.80;38.17;92452.22;4996651;28;7160;-61
2023/03/10 02:18:54;;;;;;;;;;;;;;;26.82;37.78;92448.88;4972311;28;8810;-61
2023/03/10 02:22:02;;;;;;;;;;;;;;;26.82;38.00;92457.91;4968100;28;9035;-62
2023/03/10 02:24:46;;;;;;;;;;;;;;;26.81;37.84;92453.69;4973607;28;8990;-61
2023/03/10 02:27:38;;;;;;;;;;;;;;;26.80;38.14;92441.19;4972447;28;7334;-61
2023/03/10 02:30:14;;;;;;;;;;;;;;;26.80;37.95;92451.47;4987014;28;9448;-61
2023/03/10 02:32:47;;;;;;;;;;;;;;;26.79;38.05;92461.78;4969528;28;8963;-61
2023/03/10 02:35:23;;;;;;;;;;;;;;;26.80;38.49;92468.03;5000367;28;7389;-62
2023/03/10 02:37:58;;;;;;;;;;;;;;;26.80;38.15;92468.03;4967816;28;7227;-61
2023/03/10 02:40:36;;;;;;;;;;;;;;;26.79;37.95;92467.31;4984080;28;7316;-61
2023/03/10 02:43:23;;;;;;;;;;;;;;;26.79;38.31;92464.56;4970750;28;7052;-61
2023/03/10 02:46:25;;;;;;;;;;;;;;;26.79;37.89;92464.56;4995076;28;9479;-62
2023/03/10 02:48:58;;;;;;;;;;;;;;;26.79;38.30;92463.81;4973671;28;9023;-61
2023/03/10 02:52:19;;;;;;;;;;;;;;;26.79;38.36;92467.31;4988054;28;8963;-61
2023/03/10 02:54:47;;;;;;;;;;;;;;;26.76;38.41;92478.72;4971055;28;6993;-62
2023/03/10 02:57:13;;;;;;;;;;;;;;;26.76;38.19;92498.03;4926302;28;1129586;-62
2023/03/10 02:59:39;;;;;;;;;;;;;;;26.77;37.75;92499.50;4966028;28;7774;-61
2023/03/10 03:02:05;;;;;;;;;;;;;;;26.76;38.08;92478.72;4982548;28;7212;-62
2023/03/10 03:04:32;;;;;;;;;;;;;;;26.77;38.23;92483.66;4969055;28;7226;-62
2023/03/10 03:06:58;;;;;;;;;;;;;;;26.78;38.19;92479.63;4977532;28;7113;-61
2023/03/10 03:09:26;;;;;;;;;;;;;;;26.78;37.73;92473.38;4970769;28;7423;-62
2023/03/10 03:12:06;;;;;;;;;;;;;;;26.79;38.02;92461.78;4961625;28;9348;-61
2023/03/10 03:14:34;;;;;;;;;;;;;;;26.78;37.79;92468.59;4970408;28;7855;-61
2023/03/10 03:17:02;;;;;;;;;;;;;;;26.78;38.16;92456.81;4988079;28;7439;-62
2023/03/10 03:19:29;;;;;;;;;;;;;;;26.79;38.05;92459.03;4963259;28;8622;-62
2023/03/10 03:21:55;;;;;;;;;;;;;;;26.79;37.98;92431.47;4962304;28;7234;-62
2023/03/10 03:24:23;;;;;;;;;;;;;;;26.78;37.96;92438.25;4974725;28;8796;-61
2023/03/10 03:26:49;;;;;;;;;;;;;;;26.79;37.93;92425.94;4973806;28;8785;-61
2023/03/10 03:29:16;;;;;;;;;;;;;;;26.78;38.06;92432.00;4972730;28;7212;-61
2023/03/10 03:31:44;;;;;;;;;;;;;;;26.79;37.89;92425.22;4970376;28;7112;-61
2023/03/10 03:34:40;;;;;;;;;;;;;;;26.78;38.11;92423.72;4969991;28;7507;-61
2023/03/10 03:37:06;;;;;;;;;;;;;;;26.77;38.30;92420.22;4970266;28;7085;-61
2023/03/10 03:39:39;;;;;;;;;;;;;;;26.78;38.14;92412.69;4974645;28;7068;-60
2023/03/10 03:42:33;;;;;;;;;;;;;;;26.77;37.68;92417.47;4972104;28;9030;-60
2023/03/10 03:45:26;;;;;;;;;;;;;;;26.77;37.75;92405.72;4964709;28;6910;-61
2023/03/10 03:48:01;;;;;;;;;;;;;;;26.76;37.84;92407.03;4970541;28;9306;-61
2023/03/10 03:50:29;;;;;;;;;;;;;;;26.77;37.71;92419.53;4959907;28;8793;-61
2023/03/10 03:53:08;;;;;;;;;;;;;;;26.77;37.93;92419.53;4970091;28;9077;-61
2023/03/10 03:55:35;;;;;;;;;;;;;;;26.79;37.69;92419.69;4974326;28;9082;-61
2023/03/10 03:58:40;;;;;;;;;;;;;;;26.79;38.47;92416.94;4973484;28;7574;-61
2023/03/10 04:01:12;;;;;;;;;;;;;;;26.77;38.27;92416.75;4986968;28;7190;-61
2023/03/10 04:04:06;;;;;;;;;;;;;;;26.78;37.85;92409.94;4967115;28;9450;-61
2023/03/10 04:06:45;;;;;;;;;;;;;;;26.76;37.72;92404.25;4975613;28;9097;-61
2023/03/10 04:09:19;;;;;;;;;;;;;;;26.78;37.75;92407.19;4970817;28;8722;-61
2023/03/10 04:11:48;;;;;;;;;;;;;;;26.78;38.18;92416.19;4954381;28;7026;-61
2023/03/10 04:14:14;;;;;;;;;;;;;;;26.76;37.87;92391.22;4967667;28;7230;-61
2023/03/10 04:16:53;;;;;;;;;;;;;;;26.79;37.95;92370.03;4965324;28;9528;-61
2023/03/10 04:19:31;;;;;;;;;;;;;;;26.78;37.63;92365.81;4969549;28;8993;-61
2023/03/10 04:21:59;;;;;;;;;;;;;;;26.78;37.93;92363.06;4974867;28;9391;-61
2023/03/10 04:24:25;;;;;;;;;;;;;;;26.79;37.78;92353.50;4969795;28;9104;-61
2023/03/10 04:26:57;;;;;;;;;;;;;;;26.75;37.58;92348.38;4969670;28;7615;-61
2023/03/10 04:29:23;;;;;;;;;;;;;;;26.74;37.95;92343.44;4969920;28;7130;-62
2023/03/10 04:31:50;;;;;;;;;;;;;;;26.76;37.86;92327.03;4977971;28;9014;-61
2023/03/10 04:34:16;;;;;;;;;;;;;;;26.75;38.20;92326.31;4967639;28;7050;-61
2023/03/10 04:36:46;;;;;;;;;;;;;;;26.77;38.10;92317.47;4971293;28;7262;-61
2023/03/10 04:39:23;;;;;;;;;;;;;;;26.78;37.88;92321.69;4962948;28;7249;-61
2023/03/10 04:41:50;;;;;;;;;;;;;;;26.78;37.82;92318.91;4971467;28;7317;-61
2023/03/10 04:44:46;;;;;;;;;;;;;;;26.78;37.61;92305.13;4988779;28;7495;-61
2023/03/10 04:48:02;;;;;;;;;;;;;;;26.76;38.11;92294.69;4950730;28;7258;-61
2023/03/10 04:50:39;;;;;;;;;;;;;;;26.77;37.42;92279.56;4877310;29;7202;-61
2023/03/10 04:53:09;;;;;;;;;;;;;;;26.74;37.57;92286.25;4858341;29;9409;-61
2023/03/10 04:56:02;;;;;;;;;;;;;;;26.75;37.93;92278.72;4860491;29;8712;-61
2023/03/10 04:58:57;;;;;;;;;;;;;;;26.75;37.93;92265.63;4873004;29;7215;-61
2023/03/10 05:01:25;;;;;;;;;;;;;;;26.75;37.96;92256.66;4809139;29;8692;-61
2023/03/10 05:03:51;;;;;;;;;;;;;;;26.74;37.89;92244.13;4839734;29;8949;-61
2023/03/10 05:06:38;;;;;;;;;;;;;;;26.75;37.47;92237.34;4837732;29;7139;-61
2023/03/10 05:09:05;;;;;;;;;;;;;;;26.76;37.88;92233.28;4834458;29;9303;-61
2023/03/10 05:12:00;;;;;;;;;;;;;;;26.76;37.32;92233.28;4839816;29;7240;-61
2023/03/10 05:14:45;;;;;;;;;;;;;;;26.75;37.39;92221.50;4791450;29;7245;-61
2023/03/10 05:17:42;;;;;;;;;;;;;;;26.74;37.45;92214.53;4772576;29;7215;-61
2023/03/10 05:20:43;;;;;;;;;;;;;;;26.76;38.07;92202.94;4756286;30;7808;-61
2023/03/10 05:23:57;;;;;;;;;;;;;;;26.74;37.26;92188.97;4752453;30;8924;-61
2023/03/10 05:26:24;;;;;;;;;;;;;;;26.75;37.88;92193.22;4750327;29;7518;-61
2023/03/10 05:29:20;;;;;;;;;;;;;;;26.75;37.73;92190.44;4805747;29;7033;-61
2023/03/10 05:31:57;;;;;;;;;;;;;;;26.74;37.59;92180.72;4797594;29;7406;-61
2023/03/10 05:34:29;;;;;;;;;;;;;;;26.73;37.43;92179.28;4805820;29;9628;-61
2023/03/10 05:37:05;;;;;;;;;;;;;;;26.73;37.58;92168.25;4809119;29;7250;-61
2023/03/10 05:39:48;;;;;;;;;;;;;;;26.71;37.34;92173.53;4824836;29;7455;-61
2023/03/10 05:42:15;;;;;;;;;;;;;;;26.73;37.59;92182.03;4839436;29;9605;-61
2023/03/10 05:44:43;;;;;;;;;;;;;;;26.71;37.87;92182.53;4832394;29;8793;-60
2023/03/10 05:47:40;;;;;;;;;;;;;;;26.71;37.62;92171.50;4814110;29;7804;-60
2023/03/10 05:50:34;;;;;;;;;;;;;;;26.69;37.35;92165.09;4839614;29;7079;-61
2023/03/10 05:53:02;;;;;;;;;;;;;;;26.67;37.69;92151.91;4823040;29;7360;-61
2023/03/10 05:55:41;;;;;;;;;;;;;;;26.68;37.70;92145.09;4821877;29;7243;-61
2023/03/10 05:58:08;;;;;;;;;;;;;;;26.67;37.78;92151.91;4886144;29;9126;-61
2023/03/10 06:00:38;;;;;;;;;;;;;;;26.68;37.38;92149.88;4928610;28;8992;-61
2023/03/10 06:03:15;;;;;;;;;;;;;;;26.67;37.81;92160.19;4937647;28;9110;-60
2023/03/10 06:05:59;;;;;;;;;;;;;;;26.69;37.81;92156.84;4937794;28;7311;-61
2023/03/10 06:08:45;;;;;;;;;;;;;;;26.70;37.84;92150.78;4952810;28;8806;-61
2023/03/10 06:11:21;;;;;;;;;;;;;;;26.69;37.49;92143.06;4937989;28;9469;-61
2023/03/10 06:13:56;;;;;;;;;;;;;;;26.71;38.11;92143.22;4944345;28;7715;-61
2023/03/10 06:16:38;;;;;;;;;;;;;;;26.68;37.73;92141.59;4949481;28;7152;-61
2023/03/10 06:19:06;;;;;;;;;;;;;;;26.67;38.09;92142.91;4957411;28;7178;-61
2023/03/10 06:21:43;;;;;;;;;;;;;;;26.67;37.39;92134.63;4942883;28;8208;-62
2023/03/10 06:24:09;;;;;;;;;;;;;;;26.64;38.09;92136.50;4938727;28;8715;-61
2023/03/10 06:26:39;;;;;;;;;;;;;;;26.65;37.63;92175.84;4955218;28;7420;-61
2023/03/10 06:29:08;;;;;;;;;;;;;;;26.66;37.95;92174.53;4973843;28;7032;-61
2023/03/10 06:31:34;;;;;;;;;;;;;;;26.68;36.74;92163.66;4965939;28;9044;-61
2023/03/10 06:34:00;;;;;;;;;;;;;;;26.68;37.71;92171.94;4972849;28;9026;-61
2023/03/10 06:36:33;;;;;;;;;;;;;;;26.69;37.25;92168.59;4996842;28;8308;-61
2023/03/10 06:39:00;;;;;;;;;;;;;;;26.70;36.85;92181.09;4963088;28;7099;-61
2023/03/10 06:41:31;;;;;;;;;;;;;;;26.70;37.54;92191.41;4967761;28;7705;-60
2023/03/10 06:44:00;;;;;;;;;;;;;;;26.69;37.06;92187.91;4966321;28;8970;-61
2023/03/10 06:46:32;;;;;;;;;;;;;;;26.67;37.15;92200.81;4977300;28;9230;-61
2023/03/10 06:48:59;;;;;;;;;;;;;;;26.68;36.90;92189.22;4967388;28;9091;-61
2023/03/10 06:51:25;;;;;;;;;;;;;;;26.67;37.52;92222.88;4978876;28;7122;-61
2023/03/10 06:53:51;;;;;;;;;;;;;;;26.65;37.38;92261.31;4971781;28;9168;-61
2023/03/10 06:56:21;;;;;;;;;;;;;;;26.64;36.79;92290.91;4958961;28;9013;-60
2023/03/10 06:58:48;;;;;;;;;;;;;;;26.65;37.62;92316.47;4968562;28;7288;-61
2023/03/10 07:01:44;;;;;;;;;;;;;;;26.64;37.12;92335.03;4966661;28;9271;-60
2023/03/10 07:04:13;;;;;;;;;;;;;;;26.65;37.23;92347.53;4965804;28;7032;-61
2023/03/10 07:06:43;;;;;;;;;;;;;;;26.65;37.87;92350.28;4946556;28;6863;-60
2023/03/10 07:09:12;;;;;;;;;;;;;;;26.63;37.50;92346.63;4950721;28;9109;-60
2023/03/10 07:11:43;;;;;;;;;;;;;;;26.61;37.56;92322.38;4947528;28;9073;-61
2023/03/10 07:14:13;;;;;;;;;;;;;;;26.61;37.57;92327.91;4949635;28;7615;-61
2023/03/10 07:16:40;;;;;;;;;;;;;;;26.62;37.83;92329.34;4940403;28;7059;-60
2023/03/10 07:19:36;;;;;;;;;;;;;;;26.60;38.18;92304.38;4968222;28;7029;-60
2023/03/10 07:22:12;;;;;;;;;;;;;;;26.59;37.88;92269.84;4903882;29;9187;-60
2023/03/10 07:24:53;;;;;;;;;;;;;;;26.61;38.20;92263.75;4923568;29;9182;-60
2023/03/10 07:27:19;;;;;;;;;;;;;;;26.63;37.60;92272.19;4911429;29;7007;-61
2023/03/10 07:29:52;;;;;;;;;;;;;;;26.63;38.48;92324.56;4900326;29;7217;-61
2023/03/10 07:32:29;;;;;;;;;;;;;;;26.62;38.43;92340.38;4916902;29;8975;-61
2023/03/10 07:34:59;;;;;;;;;;;;;;;26.61;38.82;92316.13;4922421;29;9202;-61
2023/03/10 07:37:36;;;;;;;;;;;;;;;26.63;38.71;92310.78;4902758;29;6990;-61
2023/03/10 07:40:06;;;;;;;;;;;;;;;26.65;38.46;92322.72;4896842;29;7172;-61
2023/03/10 07:42:32;;;;;;;;;;;;;;;26.65;39.32;92335.75;4926712;28;7028;-62
2023/03/10 07:45:01;;;;;;;;;;;;;;;26.65;39.50;92382.63;4921527;29;7137;-62
2023/03/10 07:47:42;;;;;;;;;;;;;;;26.64;39.06;92397.75;4914174;29;9673;-61
2023/03/10 07:50:31;;;;;;;;;;;;;;;26.61;39.19;92432.69;4907029;29;7237;-61
2023/03/10 07:53:10;;;;;;;;;;;;;;;26.61;39.19;92470.53;4917177;29;7029;-61
2023/03/10 07:55:48;;;;;;;;;;;;;;;26.62;38.99;92438.94;4913970;29;7039;-62
2023/03/10 07:58:22;;;;;;;;;;;;;;;26.63;39.12;92446.63;4939693;28;9433;-61
2023/03/10 08:01:11;;;;;;;;;;;;;;;26.59;39.17;92440.06;4986642;28;8716;-61
2023/03/10 08:03:38;;;;;;;;;;;;;;;26.58;39.17;92449.59;4984587;28;9509;-62
2023/03/10 08:06:40;;;;;;;;;;;;;;;26.56;39.79;92433.63;4970317;28;8978;-62
2023/03/10 08:09:24;;;;;;;;;;;;;;;26.58;39.66;92433.78;4947422;28;7022;-61
2023/03/10 08:12:04;;;;;;;;;;;;;;;26.63;39.03;92443.13;4962524;28;7242;-61
2023/03/10 08:14:58;;;;;;;;;;;;;;;26.64;38.62;92447.38;4965501;28;9061;-61
2023/03/10 08:17:46;;;;;;;;;;;;;;;26.64;39.04;92436.34;4957333;28;7235;-61
2023/03/10 08:20:13;;;;;;;;;;;;;;;26.64;39.60;92459.13;4956662;28;7216;-62
2023/03/10 08:22:51;;;;;;;;;;;;;;;26.59;38.87;92453.84;4942922;29;9085;-62
2023/03/10 08:25:21;;;;;;;;;;;;;;;26.60;39.58;92458.06;4963132;28;7032;-62
2023/03/10 08:28:06;;;;;;;;;;;;;;;26.61;39.63;92459.53;4950005;28;7046;-62
2023/03/10 08:30:35;;;;;;;;;;;;;;;26.61;40.13;92457.50;4952539;28;9133;-61
2023/03/10 08:33:01;;;;;;;;;;;;;;;26.61;40.13;92443.72;4955064;28;7111;-61
2023/03/10 08:35:29;;;;;;;;;;;;;;;26.64;39.28;92441.84;4968719;28;8762;-61
2023/03/10 08:38:01;;;;;;;;;;;;;;;26.63;39.13;92441.13;4951080;28;7100;-61
2023/03/10 08:40:30;;;;;;;;;;;;;;;26.60;39.43;92439.47;4959761;28;8897;-61
2023/03/10 08:43:01;;;;;;;;;;;;;;;26.60;39.28;92433.97;4951150;28;8800;-61
2023/03/10 08:45:27;;;;;;;;;;;;;;;26.59;39.69;92438.03;4978854;28;7124;-61
2023/03/10 08:47:54;;;;;;;;;;;;;;;26.58;39.09;92427.53;4973123;28;9133;-61
2023/03/10 08:50:20;;;;;;;;;;;;;;;26.60;39.58;92436.72;4985272;28;8829;-61
2023/03/10 08:52:46;;;;;;;;;;;;;;;26.60;39.65;92430.50;4971557;28;7355;-62
2023/03/10 08:55:13;;;;;;;;;;;;;;;26.58;39.64;92428.28;4972659;28;7063;-62
2023/03/10 08:57:39;;;;;;;;;;;;;;;26.62;39.29;92430.66;4973253;28;9118;-61
2023/03/10 09:00:11;;;;;;;;;;;;;;;26.60;39.27;92413.94;4972535;28;8737;-62
2023/03/10 09:02:37;;;;;;;;;;;;;;;26.61;39.96;92415.41;4966893;28;7053;-62
2023/03/10 09:05:03;;;;;;;;;;;;;;;26.61;39.67;92415.41;4964645;28;9053;-61
2023/03/10 09:07:31;;;;;;;;;;;;;;;26.59;39.71;92409.72;5001056;28;8969;-61
2023/03/10 09:10:02;;;;;;;;;;;;;;;26.60;39.30;92422.94;4970923;28;7808;-61
2023/03/10 09:12:30;;;;;;;;;;;;;;;26.59;39.48;92431.78;4973038;28;7092;-61
2023/03/10 09:14:56;;;;;;;;;;;;;;;26.60;39.61;92436.72;4966016;28;9095;-60
2023/03/10 09:17:25;;;;;;;;;;;;;;;26.59;39.63;92424.25;4967129;28;9054;-60
2023/03/10 09:19:51;;;;;;;;;;;;;;;26.60;39.49;92416.72;4980611;28;9671;-60
2023/03/10 09:22:17;;;;;;;;;;;;;;;26.58;39.35;92405.50;4968979;28;7003;-60
2023/03/10 09:24:43;;;;;;;;;;;;;;;26.59;38.92;92396.66;4962882;28;7305;-61
2023/03/10 09:27:09;;;;;;;;;;;;;;;26.58;39.36;92388.94;4964483;28;7996;-60
2023/03/10 09:29:36;;;;;;;;;;;;;;;26.55;39.25;92376.31;4965286;28;9418;-61
2023/03/10 09:32:06;;;;;;;;;;;;;;;26.58;39.84;92388.94;4969161;28;7092;-61
2023/03/10 09:34:37;;;;;;;;;;;;;;;26.59;39.27;92390.41;4969089;28;9136;-61
2023/03/10 09:37:09;;;;;;;;;;;;;;;26.59;39.20;92384.91;4970878;28;9136;-61
2023/03/10 09:39:39;;;;;;;;;;;;;;;26.61;39.06;92376.78;4970932;28;9239;-61
2023/03/10 09:42:10;;;;;;;;;;;;;;;26.61;38.88;92383.06;4966144;28;7658;-61
2023/03/10 09:45:20;;;;;;;;;;;;;;;26.63;39.41;92376.97;4968090;28;9458;-60
2023/03/10 09:48:10;;;;;;;;;;;;;;;26.62;39.03;92378.28;4957150;28;8652;-61
2023/03/10 09:50:55;;;;;;;;;;;;;;;26.61;39.36;92383.06;4971856;28;7267;-61
2023/03/10 09:53:49;;;;;;;;;;;;;;;26.63;39.24;92393.50;4985299;28;9658;-61
2023/03/10 09:56:30;;;;;;;;;;;;;;;26.63;39.35;92410.06;4965033;28;7256;-62
2023/03/10 09:59:24;;;;;;;;;;;;;;;26.62;38.94;92403.09;4960865;28;7120;-61
2023/03/10 10:02:23;;;;;;;;;;;;;;;26.61;39.54;92407.13;4970338;28;9034;-61
2023/03/10 10:05:23;;;;;;;;;;;;;;;26.62;38.78;92400.31;4954710;28;7034;-61
2023/03/10 10:08:12;;;;;;;;;;;;;;;26.61;38.81;92407.13;4972958;28;9108;-62
2023/03/10 10:10:52;;;;;;;;;;;;;;;26.61;39.31;92426.44;4953329;28;8974;-62
2023/03/10 10:13:37;;;;;;;;;;;;;;;26.60;39.02;92430.50;4940985;28;8753;-61
2023/03/10 10:16:19;;;;;;;;;;;;;;;26.60;39.47;92433.25;4944621;28;9276;-61
2023/03/10 10:19:41;;;;;;;;;;;;;;;26.60;39.12;92425.69;4963721;28;8276;-61
2023/03/10 10:22:22;;;;;;;;;;;;;;;26.61;39.04;92424.41;4952434;28;7169;-61
2023/03/10 10:25:06;;;;;;;;;;;;;;;26.61;39.08;92440.22;4965140;28;9341;-61
2023/03/10 10:28:17;;;;;;;;;;;;;;;26.60;39.53;92442.22;4945422;28;9014;-62
2023/03/10 10:30:43;;;;;;;;;;;;;;;26.60;39.18;92447.03;4878774;29;7019;-61
2023/03/10 10:33:27;;;;;;;;;;;;;;;26.61;39.60;92462.28;4880253;29;7268;-62
2023/03/10 10:36:30;;;;;;;;;;;;;;;26.63;39.52;92467.94;4894026;29;6989;-62
2023/03/10 10:38:58;;;;;;;;;;;;;;;26.61;39.41;92476.81;4840189;29;9008;-62
2023/03/10 10:41:27;;;;;;;;;;;;;;;26.59;38.81;92462.84;4823417;29;8739;-62
2023/03/10 10:44:04;;;;;;;;;;;;;;;26.60;39.35;92475.31;4849745;29;9393;-62
2023/03/10 10:46:31;;;;;;;;;;;;;;;26.57;38.83;92484.00;4821911;29;7317;-63
2023/03/10 10:49:37;;;;;;;;;;;;;;;26.59;39.37;92464.88;4826048;29;7242;-63
2023/03/10 10:52:19;;;;;;;;;;;;;;;26.51;38.86;92451.13;4838563;29;7397;-63
2023/03/10 10:54:55;;;;;;;;;;;;;;;26.53;38.92;92458.84;4820072;29;9044;-62
2023/03/10 10:57:34;;;;;;;;;;;;;;;26.53;38.92;92475.41;4847143;29;9257;-63
2023/03/10 11:00:33;;;;;;;;;;;;;;;26.54;39.07;92479.59;4817570;29;7027;-62
2023/03/10 11:03:00;;;;;;;;;;;;;;;26.54;39.07;92472.06;4869067;29;9836;-62
2023/03/10 11:05:39;;;;;;;;;;;;;;;26.56;39.24;92474.25;4925529;28;7183;-63
2023/03/10 11:08:41;;;;;;;;;;;;;;;26.56;39.83;92482.53;4933230;29;7380;-62
2023/03/10 11:11:30;;;;;;;;;;;;;;;26.46;40.15;92470.66;4924762;29;9362;-62
2023/03/10 11:14:20;;;;;;;;;;;;;;;26.42;40.89;92492.38;4943394;28;7257;-62
2023/03/10 11:16:54;;;;;;;;;;;;;;;26.39;40.11;92483.19;4962906;28;7234;-62
2023/03/10 11:19:54;;;;;;;;;;;;;;;26.38;41.01;92481.03;4945037;28;9298;-63
2023/03/10 11:22:36;;;;;;;;;;;;;;;26.35;40.52;92471.09;4953071;28;8993;-63
2023/03/10 11:25:24;;;;;;;;;;;;;;;26.36;39.87;92494.63;4969702;28;7048;-63
2023/03/10 11:28:17;;;;;;;;;;;;;;;26.33;40.49;92490.22;4912889;28;7069;-63
2023/03/10 11:31:29;;;;;;;;;;;;;;;26.35;40.67;92479.38;4970628;28;8683;-63
2023/03/10 11:34:34;;;;;;;;;;;;;;;26.34;40.00;92484.16;4952281;28;8716;-60
2023/03/10 11:37:25;;;;;;;;;;;;;;;26.36;40.72;92494.63;4953358;28;7466;-59
2023/03/10 11:40:15;;;;;;;;;;;;;;;26.35;40.46;92488.38;4966116;28;7196;-61
2023/03/10 11:42:55;;;;;;;;;;;;;;;26.34;40.45;92483.44;4966682;28;8819;-61
2023/03/10 11:45:42;;;;;;;;;;;;;;;26.35;40.62;92482.88;4966756;28;7032;-61
2023/03/10 11:48:31;;;;;;;;;;;;;;;26.36;39.96;92484.31;4965543;28;7492;-60
2023/03/10 11:51:07;;;;;;;;;;;;;;;26.40;39.95;92483.94;4964852;28;8408;-61
2023/03/10 11:54:00;;;;;;;;;;;;;;;26.43;40.55;92478.03;4976977;28;9172;-61
2023/03/10 11:56:27;;;;;;;;;;;;;;;26.43;39.30;92477.28;4962145;28;7265;-60
2023/03/10 11:59:29;;;;;;;;;;;;;;;26.46;39.51;92476.91;4968045;28;7430;-62
2023/03/10 12:02:00;;;;;;;;;;;;;;;26.48;40.15;92473.59;4949943;28;6975;-62
2023/03/10 12:05:15;;;;;;;;;;;;;;;26.51;39.98;92477.97;4935593;28;7228;-62
2023/03/10 12:07:49;;;;;;;;;;;;;;;26.53;39.39;92475.41;4946232;28;7027;-61
2023/03/10 12:10:24;;;;;;;;;;;;;;;26.55;39.17;92484.56;4933722;29;9546;-62
2023/03/10 12:12:52;;;;;;;;;;;;;;;26.55;39.28;92483.84;4936392;29;7268;-63
2023/03/10 12:15:38;;;;;;;;;;;;;;;26.58;39.72;92502.00;4938171;29;10020;-63
2023/03/10 12:18:07;;;;;;;;;;;;;;;26.58;39.75;92490.97;4938326;28;9210;-62
2023/03/10 12:20:34;;;;;;;;;;;;;;;26.57;39.71;92487.50;4956131;28;7346;-62
2023/03/10 12:23:37;;;;;;;;;;;;;;;26.61;39.78;92495.38;4932623;28;8720;-62
2023/03/10 12:26:37;;;;;;;;;;;;;;;26.63;38.94;92509.31;4938143;28;9017;-62
2023/03/10 12:29:18;;;;;;;;;;;;;;;26.63;39.20;92485.25;4954930;28;7447;-61
2023/03/10 12:31:50;;;;;;;;;;;;;;;26.62;39.44;92488.56;4949324;28;7230;-62
2023/03/10 12:34:31;;;;;;;;;;;;;;;26.61;39.99;92479.56;4955999;28;9285;-62
2023/03/10 12:37:34;;;;;;;;;;;;;;;26.60;39.47;92480.13;4947979;28;9383;-61
2023/03/10 12:40:01;;;;;;;;;;;;;;;26.63;39.18;92478.97;4958870;28;7455;-62
2023/03/10 12:42:44;;;;;;;;;;;;;;;26.63;40.01;92476.22;4958674;28;7376;-62
2023/03/10 12:45:31;;;;;;;;;;;;;;;26.63;38.89;92474.22;4964513;28;9781;-62
2023/03/10 12:48:33;;;;;;;;;;;;;;;26.61;39.26;92481.56;4986076;28;8938;-62
2023/03/10 12:51:13;;;;;;;;;;;;;;;26.61;39.42;92476.06;4968945;28;7051;-62
2023/03/10 12:54:13;;;;;;;;;;;;;;;26.62;38.62;92485.81;4969340;28;7050;-62
2023/03/10 12:57:10;;;;;;;;;;;;;;;26.62;39.05;92488.56;4969438;28;7275;-62
2023/03/10 12:59:47;;;;;;;;;;;;;;;26.63;38.64;92481.75;4974148;28;7598;-62
2023/03/10 13:02:32;;;;;;;;;;;;;;;26.62;39.32;92483.06;4971444;28;9389;-62
2023/03/10 13:05:38;;;;;;;;;;;;;;;26.60;39.51;92489.09;4956172;28;8979;-62
2023/03/10 13:08:43;;;;;;;;;;;;;;;26.59;38.93;92498.69;4949605;28;8351;-62
2023/03/10 13:14:49;;;;;;;;;;;;;;;26.59;39.09;92514.50;4967646;28;9500;-62
2023/03/10 13:17:33;;;;;;;;;;;;;;;26.56;39.46;92497.03;4966446;28;9180;-61
2023/03/10 13:20:02;;;;;;;;;;;;;;;26.55;38.94;92505.88;4957534;28;9740;-62
2023/03/10 13:22:28;;;;;;;;;;;;;;;26.55;39.30;92516.91;4943524;28;7530;-62
2023/03/10 13:25:04;;;;;;;;;;;;;;;26.56;39.01;92513.59;4970030;28;7065;-62
2023/03/10 13:27:33;;;;;;;;;;;;;;;26.54;39.21;92491.38;4964882;28;7288;-62
2023/03/10 13:30:04;;;;;;;;;;;;;;;26.55;38.92;92506.63;4968748;28;7300;-61
2023/03/10 13:32:35;;;;;;;;;;;;;;;26.51;39.67;92516.59;4960991;28;9060;-61
2023/03/10 13:35:35;;;;;;;;;;;;;;;26.47;38.89;92521.75;4984225;28;7211;-61
2023/03/10 13:38:04;;;;;;;;;;;;;;;26.42;38.82;92523.44;4918106;29;8153;-62
2023/03/10 13:40:30;;;;;;;;;;;;;;;26.45;39.68;92535.34;4931574;29;7032;-62
2023/03/10 13:42:56;;;;;;;;;;;;;;;26.41;39.55;92527.47;4931143;29;9426;-62
2023/03/10 13:45:32;;;;;;;;;;;;;;;26.40;39.57;92525.28;4913846;29;7020;-62
2023/03/10 13:48:06;;;;;;;;;;;;;;;26.35;39.58;92528.97;4931123;29;9605;-62
2023/03/10 13:50:32;;;;;;;;;;;;;;;26.34;39.59;92524.78;4920737;29;9508;-62
2023/03/10 13:52:59;;;;;;;;;;;;;;;26.34;39.92;92535.81;4922503;29;7107;-62
2023/03/10 13:55:41;;;;;;;;;;;;;;;26.33;39.30;92523.31;4915386;29;7106;-62
2023/03/10 13:58:12;;;;;;;;;;;;;;;26.32;39.92;92538.38;4913463;29;9465;-61
2023/03/10 14:00:49;;;;;;;;;;;;;;;26.30;39.54;92527.91;4913631;29;7020;-61